sensor_id;sensor_type;location;lat;lon;timestamp;temperature;humidity
15257;DHT22;7731;50.720;6.912;2022-09-27T00:01:59;11.10;99.90
15257;DHT22;7731;50.720;6.912;2022-09-27T00:04:29;11.10;99.90
15257;DHT22;7731;50.720;6.912;2022-09-27T00:07:00;11.10;99.90
15257;DHT22;7731;50.720;6.912;2022-09-27T00:09:31;10.90;99.90
15257;DHT22;7731;50.720;6.912;2022-09-27T00:12:04;10.90;99.90
15257;DHT22;7731;50.720;6.912;2022-09-27T00:14:35;10.90;99.90
15257;DHT22;7731;50.720;6.912;2022-09-27T00:17:05;10.70;99.90
15257;DHT22;7731;50.720;6.912;2022-09-27T00:19:38;10.70;99.90
15257;DHT22;7731;50.720;6.912;2022-09-27T00:22:11;10.60;99.90
15257;DHT22;7731;50.720;6.912;2022-09-27T00:24:41;10.70;99.90
15257;DHT22;7731;50.720;6.912;2022-09-27T00:27:17;10.70;99.90
15257;DHT22;7731;50.720;6.912;2022-09-27T00:29:48;10.70;99.90
15257;DHT22;7731;50.720;6.912;2022-09-27T00:32:21;10.60;99.90
15257;DHT22;7731;50.720;6.912;2022-09-27T00:34:51;10.70;99.90
15257;DHT22;7731;50.720;6.912;2022-09-27T00:37:25;10.70;99.90
15257;DHT22;7731;50.720;6.912;2022-09-27T00:40:00;10.60;99.90
15257;DHT22;7731;50.720;6.912;2022-09-27T00:42:36;10.60;99.90
15257;DHT22;7731;50.720;6.912;2022-09-27T00:45:12;10.50;99.90
15257;DHT22;7731;50.720;6.912;2022-09-27T00:48:02;10.50;99.90
15257;DHT22;7731;50.720;6.912;2022-09-27T00:50:40;10.40;99.90
15257;DHT22;7731;50.720;6.912;2022-09-27T00:53:19;10.40;99.90
15257;DHT22;7731;50.720;6.912;2022-09-27T00:55:54;10.50;99.90
15257;DHT22;7731;50.720;6.912;2022-09-27T00:58:36;10.40;99.90
15257;DHT22;7731;50.720;6.912;2022-09-27T01:01:11;10.40;99.90
15257;DHT22;7731;50.720;6.912;2022-09-27T01:03:48;10.40;99.90
15257;DHT22;7731;50.720;6.912;2022-09-27T01:06:23;10.40;99.90
15257;DHT22;7731;50.720;6.912;2022-09-27T01:08:56;10.50;99.90
15257;DHT22;7731;50.720;6.912;2022-09-27T01:11:39;10.40;99.90
15257;DHT22;7731;50.720;6.912;2022-09-27T01:14:46;10.50;99.90
15257;DHT22;7731;50.720;6.912;2022-09-27T01:17:38;10.40;99.90
15257;DHT22;7731;50.720;6.912;2022-09-27T01:20:42;10.40;99.90
15257;DHT22;7731;50.720;6.912;2022-09-27T01:23:58;10.30;99.90
15257;DHT22;7731;50.720;6.912;2022-09-27T01:26:57;10.30;99.90
15257;DHT22;7731;50.720;6.912;2022-09-27T01:33:09;10.30;99.90
15257;DHT22;7731;50.720;6.912;2022-09-27T01:35:55;10.20;99.90
15257;DHT22;7731;50.720;6.912;2022-09-27T01:38:57;10.30;99.90
15257;DHT22;7731;50.720;6.912;2022-09-27T01:41:41;10.40;99.90
15257;DHT22;7731;50.720;6.912;2022-09-27T01:44:23;10.40;99.90
15257;DHT22;7731;50.720;6.912;2022-09-27T01:47:06;10.50;99.90
15257;DHT22;7731;50.720;6.912;2022-09-27T01:49:47;10.40;99.90
15257;DHT22;7731;50.720;6.912;2022-09-27T01:52:31;10.40;99.90
15257;DHT22;7731;50.720;6.912;2022-09-27T01:55:08;10.50;99.90
15257;DHT22;7731;50.720;6.912;2022-09-27T01:57:52;10.40;99.90
15257;DHT22;7731;50.720;6.912;2022-09-27T02:00:29;10.40;99.90
15257;DHT22;7731;50.720;6.912;2022-09-27T02:03:09;10.40;99.90
15257;DHT22;7731;50.720;6.912;2022-09-27T02:05:44;10.40;99.90
15257;DHT22;7731;50.720;6.912;2022-09-27T02:08:30;10.40;99.90
15257;DHT22;7731;50.720;6.912;2022-09-27T02:11:09;10.40;99.90
15257;DHT22;7731;50.720;6.912;2022-09-27T02:13:55;10.40;99.90
15257;DHT22;7731;50.720;6.912;2022-09-27T02:16:38;10.40;99.90
15257;DHT22;7731;50.720;6.912;2022-09-27T02:19:28;10.40;99.90
15257;DHT22;7731;50.720;6.912;2022-09-27T02:22:14;10.40;99.90
15257;DHT22;7731;50.720;6.912;2022-09-27T02:24:55;10.40;99.90
15257;DHT22;7731;50.720;6.912;2022-09-27T02:27:32;10.30;99.90
15257;DHT22;7731;50.720;6.912;2022-09-27T02:30:13;10.30;99.90
15257;DHT22;7731;50.720;6.912;2022-09-27T02:32:44;10.40;99.90
15257;DHT22;7731;50.720;6.912;2022-09-27T02:35:19;10.30;99.90
15257;DHT22;7731;50.720;6.912;2022-09-27T02:37:54;10.30;99.90
15257;DHT22;7731;50.720;6.912;2022-09-27T02:40:32;10.40;99.90
15257;DHT22;7731;50.720;6.912;2022-09-27T02:43:04;10.30;99.90
15257;DHT22;7731;50.720;6.912;2022-09-27T02:46:04;10.20;99.90
15257;DHT22;7731;50.720;6.912;2022-09-27T02:48:49;10.20;99.90
15257;DHT22;7731;50.720;6.912;2022-09-27T02:51:45;10.20;99.90
15257;DHT22;7731;50.720;6.912;2022-09-27T02:54:33;10.20;99.90
15257;DHT22;7731;50.720;6.912;2022-09-27T02:57:21;10.30;99.90
15257;DHT22;7731;50.720;6.912;2022-09-27T03:00:05;10.20;99.90
15257;DHT22;7731;50.720;6.912;2022-09-27T03:03:00;10.20;99.90
15257;DHT22;7731;50.720;6.912;2022-09-27T03:05:38;10.20;99.90
15257;DHT22;7731;50.720;6.912;2022-09-27T03:08:14;10.20;99.90
15257;DHT22;7731;50.720;6.912;2022-09-27T03:10:44;10.20;99.90
15257;DHT22;7731;50.720;6.912;2022-09-27T03:13:15;10.20;99.90
15257;DHT22;7731;50.720;6.912;2022-09-27T03:15:45;10.30;99.90
15257;DHT22;7731;50.720;6.912;2022-09-27T03:18:15;10.20;99.90
15257;DHT22;7731;50.720;6.912;2022-09-27T03:20:46;10.10;99.90
15257;DHT22;7731;50.720;6.912;2022-09-27T03:23:21;10.10;99.90
15257;DHT22;7731;50.720;6.912;2022-09-27T03:26:06;10.10;99.90
15257;DHT22;7731;50.720;6.912;2022-09-27T03:28:42;10.00;99.90
15257;DHT22;7731;50.720;6.912;2022-09-27T03:31:15;10.00;99.90
15257;DHT22;7731;50.720;6.912;2022-09-27T03:33:45;9.90;99.90
15257;DHT22;7731;50.720;6.912;2022-09-27T03:36:15;9.90;99.90
15257;DHT22;7731;50.720;6.912;2022-09-27T03:38:51;9.90;99.90
15257;DHT22;7731;50.720;6.912;2022-09-27T03:41:25;9.90;99.90
15257;DHT22;7731;50.720;6.912;2022-09-27T03:43:55;9.90;99.90
15257;DHT22;7731;50.720;6.912;2022-09-27T03:46:26;9.90;99.90
15257;DHT22;7731;50.720;6.912;2022-09-27T03:48:58;9.80;99.90
15257;DHT22;7731;50.720;6.912;2022-09-27T03:51:29;9.90;99.90
15257;DHT22;7731;50.720;6.912;2022-09-27T03:54:02;9.90;99.90
15257;DHT22;7731;50.720;6.912;2022-09-27T03:56:32;10.00;99.90
15257;DHT22;7731;50.720;6.912;2022-09-27T03:59:02;10.00;99.90
15257;DHT22;7731;50.720;6.912;2022-09-27T04:01:33;9.90;99.90
15257;DHT22;7731;50.720;6.912;2022-09-27T04:04:05;9.80;99.90
15257;DHT22;7731;50.720;6.912;2022-09-27T04:06:37;9.80;99.90
15257;DHT22;7731;50.720;6.912;2022-09-27T04:09:10;9.90;99.90
15257;DHT22;7731;50.720;6.912;2022-09-27T04:11:41;9.90;99.90
15257;DHT22;7731;50.720;6.912;2022-09-27T04:14:17;10.00;99.90
15257;DHT22;7731;50.720;6.912;2022-09-27T04:16:48;9.90;99.90
15257;DHT22;7731;50.720;6.912;2022-09-27T04:19:18;10.00;99.90
15257;DHT22;7731;50.720;6.912;2022-09-27T04:21:48;9.90;99.90
15257;DHT22;7731;50.720;6.912;2022-09-27T04:24:21;9.90;99.90
15257;DHT22;7731;50.720;6.912;2022-09-27T04:26:51;9.90;99.90
15257;DHT22;7731;50.720;6.912;2022-09-27T04:29:25;9.90;99.90
15257;DHT22;7731;50.720;6.912;2022-09-27T04:31:56;9.90;99.90
15257;DHT22;7731;50.720;6.912;2022-09-27T04:34:26;9.80;99.90
15257;DHT22;7731;50.720;6.912;2022-09-27T04:37:12;9.80;99.90
15257;DHT22;7731;50.720;6.912;2022-09-27T04:39:44;9.60;99.90
15257;DHT22;7731;50.720;6.912;2022-09-27T04:42:18;9.60;99.90
15257;DHT22;7731;50.720;6.912;2022-09-27T04:44:48;9.50;99.90
15257;DHT22;7731;50.720;6.912;2022-09-27T04:47:21;9.50;99.90
15257;DHT22;7731;50.720;6.912;2022-09-27T04:49:51;9.40;99.90
15257;DHT22;7731;50.720;6.912;2022-09-27T04:52:24;9.40;99.90
15257;DHT22;7731;50.720;6.912;2022-09-27T04:54:57;9.40;99.90
15257;DHT22;7731;50.720;6.912;2022-09-27T04:57:27;9.20;99.90
15257;DHT22;7731;50.720;6.912;2022-09-27T04:59:57;9.20;99.90
15257;DHT22;7731;50.720;6.912;2022-09-27T05:02:28;9.20;99.90
15257;DHT22;7731;50.720;6.912;2022-09-27T05:04:58;9.20;99.90
15257;DHT22;7731;50.720;6.912;2022-09-27T05:07:29;9.20;99.90
15257;DHT22;7731;50.720;6.912;2022-09-27T05:10:04;9.20;99.90
15257;DHT22;7731;50.720;6.912;2022-09-27T05:12:45;9.20;99.90
15257;DHT22;7731;50.720;6.912;2022-09-27T05:15:15;9.20;99.90
15257;DHT22;7731;50.720;6.912;2022-09-27T05:17:46;9.20;99.90
15257;DHT22;7731;50.720;6.912;2022-09-27T05:20:18;9.20;99.90
15257;DHT22;7731;50.720;6.912;2022-09-27T05:22:54;9.10;99.90
15257;DHT22;7731;50.720;6.912;2022-09-27T05:25:29;9.20;99.90
15257;DHT22;7731;50.720;6.912;2022-09-27T05:28:01;9.20;99.90
15257;DHT22;7731;50.720;6.912;2022-09-27T05:30:32;9.20;99.90
15257;DHT22;7731;50.720;6.912;2022-09-27T05:33:03;9.10;99.90
15257;DHT22;7731;50.720;6.912;2022-09-27T05:35:36;9.10;99.90
15257;DHT22;7731;50.720;6.912;2022-09-27T05:38:11;9.20;99.90
15257;DHT22;7731;50.720;6.912;2022-09-27T05:40:50;9.10;99.90
15257;DHT22;7731;50.720;6.912;2022-09-27T05:43:21;9.10;99.90
15257;DHT22;7731;50.720;6.912;2022-09-27T05:45:51;9.20;99.90
15257;DHT22;7731;50.720;6.912;2022-09-27T05:48:24;9.20;99.90
15257;DHT22;7731;50.720;6.912;2022-09-27T05:50:59;9.30;99.90
15257;DHT22;7731;50.720;6.912;2022-09-27T05:53:31;9.30;99.90
15257;DHT22;7731;50.720;6.912;2022-09-27T05:56:05;9.30;99.90
15257;DHT22;7731;50.720;6.912;2022-09-27T05:58:38;9.40;99.90
15257;DHT22;7731;50.720;6.912;2022-09-27T06:01:09;9.60;99.90
15257;DHT22;7731;50.720;6.912;2022-09-27T06:03:39;9.70;99.90
15257;DHT22;7731;50.720;6.912;2022-09-27T06:06:15;9.80;99.90
15257;DHT22;7731;50.720;6.912;2022-09-27T06:08:46;9.80;99.90
15257;DHT22;7731;50.720;6.912;2022-09-27T06:11:22;9.90;99.90
15257;DHT22;7731;50.720;6.912;2022-09-27T06:13:53;9.90;99.90
15257;DHT22;7731;50.720;6.912;2022-09-27T06:16:23;9.90;99.90
15257;DHT22;7731;50.720;6.912;2022-09-27T06:18:54;10.00;99.90
15257;DHT22;7731;50.720;6.912;2022-09-27T06:21:24;10.20;99.90
15257;DHT22;7731;50.720;6.912;2022-09-27T06:23:55;10.30;99.90
15257;DHT22;7731;50.720;6.912;2022-09-27T06:26:30;10.60;99.90
15257;DHT22;7731;50.720;6.912;2022-09-27T06:29:03;10.80;99.90
15257;DHT22;7731;50.720;6.912;2022-09-27T06:31:35;10.90;99.90
15257;DHT22;7731;50.720;6.912;2022-09-27T06:34:05;10.90;99.90
15257;DHT22;7731;50.720;6.912;2022-09-27T06:36:39;10.70;99.90
15257;DHT22;7731;50.720;6.912;2022-09-27T06:39:17;10.50;99.90
15257;DHT22;7731;50.720;6.912;2022-09-27T06:41:52;10.60;99.90
15257;DHT22;7731;50.720;6.912;2022-09-27T06:44:27;10.70;99.90
15257;DHT22;7731;50.720;6.912;2022-09-27T06:47:00;11.00;99.90
15257;DHT22;7731;50.720;6.912;2022-09-27T06:49:30;11.20;99.90
15257;DHT22;7731;50.720;6.912;2022-09-27T06:52:06;11.50;99.90
15257;DHT22;7731;50.720;6.912;2022-09-27T06:54:36;11.50;99.90
15257;DHT22;7731;50.720;6.912;2022-09-27T06:57:11;11.70;99.90
15257;DHT22;7731;50.720;6.912;2022-09-27T07:00:06;11.90;99.90
15257;DHT22;7731;50.720;6.912;2022-09-27T07:02:53;11.90;99.90
15257;DHT22;7731;50.720;6.912;2022-09-27T07:05:27;11.80;99.90
15257;DHT22;7731;50.720;6.912;2022-09-27T07:08:03;11.70;99.90
15257;DHT22;7731;50.720;6.912;2022-09-27T07:10:34;11.70;99.90
15257;DHT22;7731;50.720;6.912;2022-09-27T07:13:09;11.70;99.90
15257;DHT22;7731;50.720;6.912;2022-09-27T07:15:40;11.60;99.90
15257;DHT22;7731;50.720;6.912;2022-09-27T07:18:11;11.60;99.90
15257;DHT22;7731;50.720;6.912;2022-09-27T07:20:44;11.70;99.90
15257;DHT22;7731;50.720;6.912;2022-09-27T07:23:14;11.60;99.90
15257;DHT22;7731;50.720;6.912;2022-09-27T07:25:45;11.50;99.90
15257;DHT22;7731;50.720;6.912;2022-09-27T07:28:22;11.50;99.90
15257;DHT22;7731;50.720;6.912;2022-09-27T07:30:53;11.50;99.90
15257;DHT22;7731;50.720;6.912;2022-09-27T07:33:24;11.60;99.90
15257;DHT22;7731;50.720;6.912;2022-09-27T07:35:55;12.00;99.90
15257;DHT22;7731;50.720;6.912;2022-09-27T07:38:25;14.00;99.90
15257;DHT22;7731;50.720;6.912;2022-09-27T07:40:56;15.80;56.10
15257;DHT22;7731;50.720;6.912;2022-09-27T07:43:29;16.70;39.00
15257;DHT22;7731;50.720;6.912;2022-09-27T07:45:59;17.10;1.00
15257;DHT22;7731;50.720;6.912;2022-09-27T07:48:30;17.30;1.00
15257;DHT22;7731;50.720;6.912;2022-09-27T07:51:00;18.40;1.00
15257;DHT22;7731;50.720;6.912;2022-09-27T07:53:33;18.60;1.00
15257;DHT22;7731;50.720;6.912;2022-09-27T07:56:04;19.50;1.00
15257;DHT22;7731;50.720;6.912;2022-09-27T07:58:41;20.50;95.70
15257;DHT22;7731;50.720;6.912;2022-09-27T08:01:11;21.50;1.00
15257;DHT22;7731;50.720;6.912;2022-09-27T08:03:41;20.10;99.90
15257;DHT22;7731;50.720;6.912;2022-09-27T08:06:12;21.00;1.00
15257;DHT22;7731;50.720;6.912;2022-09-27T08:08:42;23.20;1.00
15257;DHT22;7731;50.720;6.912;2022-09-27T08:11:14;23.50;1.00
15257;DHT22;7731;50.720;6.912;2022-09-27T08:13:50;23.20;1.00
15257;DHT22;7731;50.720;6.912;2022-09-27T08:16:23;21.80;1.00
15257;DHT22;7731;50.720;6.912;2022-09-27T08:18:53;19.80;99.90
15257;DHT22;7731;50.720;6.912;2022-09-27T08:21:36;18.10;1.00
15257;DHT22;7731;50.720;6.912;2022-09-27T08:24:06;16.40;1.00
15257;DHT22;7731;50.720;6.912;2022-09-27T08:26:37;15.20;38.00
15257;DHT22;7731;50.720;6.912;2022-09-27T08:29:17;14.30;95.60
15257;DHT22;7731;50.720;6.912;2022-09-27T08:31:49;13.90;99.90
15257;DHT22;7731;50.720;6.912;2022-09-27T08:34:20;13.90;99.90
15257;DHT22;7731;50.720;6.912;2022-09-27T08:36:50;13.80;99.90
15257;DHT22;7731;50.720;6.912;2022-09-27T08:39:21;13.90;99.90
15257;DHT22;7731;50.720;6.912;2022-09-27T08:41:57;13.90;99.90
15257;DHT22;7731;50.720;6.912;2022-09-27T08:44:39;14.30;99.90
15257;DHT22;7731;50.720;6.912;2022-09-27T08:47:24;14.30;95.30
15257;DHT22;7731;50.720;6.912;2022-09-27T08:50:03;14.40;99.90
15257;DHT22;7731;50.720;6.912;2022-09-27T08:52:49;14.40;93.30
15257;DHT22;7731;50.720;6.912;2022-09-27T08:55:31;14.30;89.20
15257;DHT22;7731;50.720;6.912;2022-09-27T08:58:13;14.20;92.00
15257;DHT22;7731;50.720;6.912;2022-09-27T09:00:54;14.00;94.90
15257;DHT22;7731;50.720;6.912;2022-09-27T09:03:29;13.80;92.00
15257;DHT22;7731;50.720;6.912;2022-09-27T09:06:10;13.80;97.70
15257;DHT22;7731;50.720;6.912;2022-09-27T09:08:54;14.00;79.20
15257;DHT22;7731;50.720;6.912;2022-09-27T09:11:42;14.40;35.70
15257;DHT22;7731;50.720;6.912;2022-09-27T09:14:41;14.80;46.10
15257;DHT22;7731;50.720;6.912;2022-09-27T09:17:42;14.80;38.60
15257;DHT22;7731;50.720;6.912;2022-09-27T09:20:46;15.10;26.80
15257;DHT22;7731;50.720;6.912;2022-09-27T09:23:41;14.90;32.30
15257;DHT22;7731;50.720;6.912;2022-09-27T09:26:38;14.90;1.00
15257;DHT22;7731;50.720;6.912;2022-09-27T09:32:27;16.00;1.00
15257;DHT22;7731;50.720;6.912;2022-09-27T09:35:14;16.20;1.00
15257;DHT22;7731;50.720;6.912;2022-09-27T09:37:50;16.70;1.00
15257;DHT22;7731;50.720;6.912;2022-09-27T09:40:26;16.70;1.00
15257;DHT22;7731;50.720;6.912;2022-09-27T09:43:12;16.50;1.00
15257;DHT22;7731;50.720;6.912;2022-09-27T09:45:51;16.90;1.00
15257;DHT22;7731;50.720;6.912;2022-09-27T09:48:37;17.10;1.00
15257;DHT22;7731;50.720;6.912;2022-09-27T09:51:21;17.50;1.00
15257;DHT22;7731;50.720;6.912;2022-09-27T09:54:03;17.70;1.00
15257;DHT22;7731;50.720;6.912;2022-09-27T09:56:42;17.70;1.00
15257;DHT22;7731;50.720;6.912;2022-09-27T09:59:27;17.40;1.00
15257;DHT22;7731;50.720;6.912;2022-09-27T10:02:16;17.40;1.00
15257;DHT22;7731;50.720;6.912;2022-09-27T10:04:56;17.40;1.00
15257;DHT22;7731;50.720;6.912;2022-09-27T10:07:38;17.40;1.00
15257;DHT22;7731;50.720;6.912;2022-09-27T10:10:15;17.30;1.00
15257;DHT22;7731;50.720;6.912;2022-09-27T10:12:49;17.40;1.00
15257;DHT22;7731;50.720;6.912;2022-09-27T10:15:22;17.50;1.00
15257;DHT22;7731;50.720;6.912;2022-09-27T10:17:58;17.30;1.00
15257;DHT22;7731;50.720;6.912;2022-09-27T10:20:35;17.00;1.00
15257;DHT22;7731;50.720;6.912;2022-09-27T10:23:13;16.50;1.00
15257;DHT22;7731;50.720;6.912;2022-09-27T10:25:49;16.10;1.00
15257;DHT22;7731;50.720;6.912;2022-09-27T10:28:30;15.90;1.00
15257;DHT22;7731;50.720;6.912;2022-09-27T10:31:08;15.80;1.00
15257;DHT22;7731;50.720;6.912;2022-09-27T10:33:52;15.70;1.00
15257;DHT22;7731;50.720;6.912;2022-09-27T10:36:29;15.60;1.00
15257;DHT22;7731;50.720;6.912;2022-09-27T10:39:05;15.70;1.00
15257;DHT22;7731;50.720;6.912;2022-09-27T10:41:51;15.80;1.00
15257;DHT22;7731;50.720;6.912;2022-09-27T10:44:25;15.60;1.00
15257;DHT22;7731;50.720;6.912;2022-09-27T10:47:00;15.60;1.00
15257;DHT22;7731;50.720;6.912;2022-09-27T10:49:39;15.40;1.00
15257;DHT22;7731;50.720;6.912;2022-09-27T10:52:17;14.90;1.00
15257;DHT22;7731;50.720;6.912;2022-09-27T10:54:54;14.70;1.00
15257;DHT22;7731;50.720;6.912;2022-09-27T10:57:27;14.50;1.00
15257;DHT22;7731;50.720;6.912;2022-09-27T11:00:03;14.40;15.40
15257;DHT22;7731;50.720;6.912;2022-09-27T11:02:36;14.40;14.90
15257;DHT22;7731;50.720;6.912;2022-09-27T11:05:10;14.40;11.00
15257;DHT22;7731;50.720;6.912;2022-09-27T11:07:56;14.60;20.70
15257;DHT22;7731;50.720;6.912;2022-09-27T11:10:30;14.90;1.60
15257;DHT22;7731;50.720;6.912;2022-09-27T11:13:10;14.90;9.90
15257;DHT22;7731;50.720;6.912;2022-09-27T11:15:56;15.20;1.00
15257;DHT22;7731;50.720;6.912;2022-09-27T11:18:58;15.20;1.00
15257;DHT22;7731;50.720;6.912;2022-09-27T11:21:46;15.40;1.00
15257;DHT22;7731;50.720;6.912;2022-09-27T11:24:44;15.10;1.00
15257;DHT22;7731;50.720;6.912;2022-09-27T11:27:34;15.20;1.00
15257;DHT22;7731;50.720;6.912;2022-09-27T11:30:19;15.30;1.00
15257;DHT22;7731;50.720;6.912;2022-09-27T11:33:28;15.30;1.00
15257;DHT22;7731;50.720;6.912;2022-09-27T11:36:18;15.30;1.00
15257;DHT22;7731;50.720;6.912;2022-09-27T11:39:10;15.10;1.00
15257;DHT22;7731;50.720;6.912;2022-09-27T11:45:11;14.70;1.00
15257;DHT22;7731;50.720;6.912;2022-09-27T11:48:22;14.90;1.90
15257;DHT22;7731;50.720;6.912;2022-09-27T11:51:13;15.20;1.00
15257;DHT22;7731;50.720;6.912;2022-09-27T11:54:11;15.30;1.00
15257;DHT22;7731;50.720;6.912;2022-09-27T11:57:07;15.20;1.00
15257;DHT22;7731;50.720;6.912;2022-09-27T12:00:06;15.20;1.00
15257;DHT22;7731;50.720;6.912;2022-09-27T12:03:05;14.90;1.00
15257;DHT22;7731;50.720;6.912;2022-09-27T12:06:10;15.10;1.00
15257;DHT22;7731;50.720;6.912;2022-09-27T12:08:54;15.30;1.00
15257;DHT22;7731;50.720;6.912;2022-09-27T12:11:36;15.10;1.00
15257;DHT22;7731;50.720;6.912;2022-09-27T12:14:19;15.20;1.00
15257;DHT22;7731;50.720;6.912;2022-09-27T12:16:54;15.20;1.00
15257;DHT22;7731;50.720;6.912;2022-09-27T12:19:29;15.30;1.00
15257;DHT22;7731;50.720;6.912;2022-09-27T12:22:06;15.30;1.00
15257;DHT22;7731;50.720;6.912;2022-09-27T12:24:43;15.60;1.00
15257;DHT22;7731;50.720;6.912;2022-09-27T12:27:19;15.40;1.00
15257;DHT22;7731;50.720;6.912;2022-09-27T12:30:10;15.50;1.00
15257;DHT22;7731;50.720;6.912;2022-09-27T12:32:48;15.30;1.00
15257;DHT22;7731;50.720;6.912;2022-09-27T12:35:27;15.20;1.00
15257;DHT22;7731;50.720;6.912;2022-09-27T12:38:03;15.00;1.00
15257;DHT22;7731;50.720;6.912;2022-09-27T12:40:41;14.80;1.00
15257;DHT22;7731;50.720;6.912;2022-09-27T12:43:20;14.80;1.00
15257;DHT22;7731;50.720;6.912;2022-09-27T12:46:05;14.80;5.60
15257;DHT22;7731;50.720;6.912;2022-09-27T12:48:49;14.90;9.50
15257;DHT22;7731;50.720;6.912;2022-09-27T12:51:31;14.60;16.80
15257;DHT22;7731;50.720;6.912;2022-09-27T12:54:30;14.50;9.70
15257;DHT22;7731;50.720;6.912;2022-09-27T12:57:23;14.60;12.80
15257;DHT22;7731;50.720;6.912;2022-09-27T13:00:11;15.00;1.00
15257;DHT22;7731;50.720;6.912;2022-09-27T13:03:14;15.00;1.00
15257;DHT22;7731;50.720;6.912;2022-09-27T13:06:20;15.00;1.00
15257;DHT22;7731;50.720;6.912;2022-09-27T13:12:25;14.80;1.00
15257;DHT22;7731;50.720;6.912;2022-09-27T13:15:04;14.70;6.80
15257;DHT22;7731;50.720;6.912;2022-09-27T13:17:53;14.70;20.30
15257;DHT22;7731;50.720;6.912;2022-09-27T13:20:41;14.60;35.20
15257;DHT22;7731;50.720;6.912;2022-09-27T13:26:47;14.20;94.90
15257;DHT22;7731;50.720;6.912;2022-09-27T13:29:27;13.80;99.90
15257;DHT22;7731;50.720;6.912;2022-09-27T13:32:20;13.40;99.90
15257;DHT22;7731;50.720;6.912;2022-09-27T13:35:10;13.20;99.90
15257;DHT22;7731;50.720;6.912;2022-09-27T13:37:52;13.00;99.90
15257;DHT22;7731;50.720;6.912;2022-09-27T13:40:30;13.00;99.90
15257;DHT22;7731;50.720;6.912;2022-09-27T13:43:25;12.90;99.90
15257;DHT22;7731;50.720;6.912;2022-09-27T13:46:15;12.70;99.90
15257;DHT22;7731;50.720;6.912;2022-09-27T13:48:56;12.40;99.90
15257;DHT22;7731;50.720;6.912;2022-09-27T13:51:35;11.90;99.90
15257;DHT22;7731;50.720;6.912;2022-09-27T13:54:37;11.60;99.90
15257;DHT22;7731;50.720;6.912;2022-09-27T14:00:26;11.10;99.90
15257;DHT22;7731;50.720;6.912;2022-09-27T14:06:27;11.40;99.90
15257;DHT22;7731;50.720;6.912;2022-09-27T14:09:03;11.60;99.90
15257;DHT22;7731;50.720;6.912;2022-09-27T14:11:41;11.80;99.90
15257;DHT22;7731;50.720;6.912;2022-09-27T14:14:15;12.20;99.90
15257;DHT22;7731;50.720;6.912;2022-09-27T14:16:49;12.60;99.90
15257;DHT22;7731;50.720;6.912;2022-09-27T14:19:23;12.80;99.90
15257;DHT22;7731;50.720;6.912;2022-09-27T14:22:11;12.90;99.90
15257;DHT22;7731;50.720;6.912;2022-09-27T14:24:46;12.50;99.90
15257;DHT22;7731;50.720;6.912;2022-09-27T14:27:23;12.70;99.90
15257;DHT22;7731;50.720;6.912;2022-09-27T14:29:59;12.60;99.90
15257;DHT22;7731;50.720;6.912;2022-09-27T14:32:32;12.90;99.90
15257;DHT22;7731;50.720;6.912;2022-09-27T14:35:06;13.20;99.90
15257;DHT22;7731;50.720;6.912;2022-09-27T14:37:53;13.30;99.90
15257;DHT22;7731;50.720;6.912;2022-09-27T14:40:57;13.40;99.90
15257;DHT22;7731;50.720;6.912;2022-09-27T14:43:46;13.30;96.10
15257;DHT22;7731;50.720;6.912;2022-09-27T14:46:24;13.30;99.90
15257;DHT22;7731;50.720;6.912;2022-09-27T14:48:56;13.70;95.40
15257;DHT22;7731;50.720;6.912;2022-09-27T14:51:31;14.00;90.50
15257;DHT22;7731;50.720;6.912;2022-09-27T14:54:01;14.30;34.00
15257;DHT22;7731;50.720;6.912;2022-09-27T14:56:35;14.60;19.90
15257;DHT22;7731;50.720;6.912;2022-09-27T14:59:14;14.70;2.50
15257;DHT22;7731;50.720;6.912;2022-09-27T15:01:49;14.50;15.90
15257;DHT22;7731;50.720;6.912;2022-09-27T15:04:21;14.30;39.80
15257;DHT22;7731;50.720;6.912;2022-09-27T15:06:54;14.00;19.70
15257;DHT22;7731;50.720;6.912;2022-09-27T15:09:25;13.80;33.10
15257;DHT22;7731;50.720;6.912;2022-09-27T15:12:00;13.70;44.90
15257;DHT22;7731;50.720;6.912;2022-09-27T15:14:37;13.60;45.00
15257;DHT22;7731;50.720;6.912;2022-09-27T15:17:18;13.40;48.00
15257;DHT22;7731;50.720;6.912;2022-09-27T15:20:02;13.20;95.50
15257;DHT22;7731;50.720;6.912;2022-09-27T15:22:46;12.90;99.90
15257;DHT22;7731;50.720;6.912;2022-09-27T15:25:26;12.30;99.90
15257;DHT22;7731;50.720;6.912;2022-09-27T15:28:04;11.70;99.90
15257;DHT22;7731;50.720;6.912;2022-09-27T15:30:52;11.30;99.90
15257;DHT22;7731;50.720;6.912;2022-09-27T15:33:29;10.80;99.90
15257;DHT22;7731;50.720;6.912;2022-09-27T15:36:03;10.70;99.90
15257;DHT22;7731;50.720;6.912;2022-09-27T15:38:38;10.60;99.90
15257;DHT22;7731;50.720;6.912;2022-09-27T15:41:13;10.60;99.90
15257;DHT22;7731;50.720;6.912;2022-09-27T15:43:45;10.60;99.90
15257;DHT22;7731;50.720;6.912;2022-09-27T15:46:46;10.60;99.90
15257;DHT22;7731;50.720;6.912;2022-09-27T15:49:27;10.60;99.90
15257;DHT22;7731;50.720;6.912;2022-09-27T15:52:03;10.50;99.90
15257;DHT22;7731;50.720;6.912;2022-09-27T15:54:41;10.40;99.90
15257;DHT22;7731;50.720;6.912;2022-09-27T15:57:11;10.50;99.90
15257;DHT22;7731;50.720;6.912;2022-09-27T15:59:44;10.40;99.90
15257;DHT22;7731;50.720;6.912;2022-09-27T16:02:16;10.40;99.90
15257;DHT22;7731;50.720;6.912;2022-09-27T16:04:47;10.50;99.90
15257;DHT22;7731;50.720;6.912;2022-09-27T16:07:18;10.70;99.90
15257;DHT22;7731;50.720;6.912;2022-09-27T16:09:48;10.80;99.90
15257;DHT22;7731;50.720;6.912;2022-09-27T16:12:21;10.70;99.90
15257;DHT22;7731;50.720;6.912;2022-09-27T16:14:53;10.70;99.90
15257;DHT22;7731;50.720;6.912;2022-09-27T16:17:28;10.80;99.90
15257;DHT22;7731;50.720;6.912;2022-09-27T16:20:01;10.80;99.90
15257;DHT22;7731;50.720;6.912;2022-09-27T16:22:34;10.80;99.90
15257;DHT22;7731;50.720;6.912;2022-09-27T16:25:05;10.90;99.90
15257;DHT22;7731;50.720;6.912;2022-09-27T16:27:39;10.70;99.90
15257;DHT22;7731;50.720;6.912;2022-09-27T16:30:10;10.70;99.90
15257;DHT22;7731;50.720;6.912;2022-09-27T16:32:45;10.60;99.90
15257;DHT22;7731;50.720;6.912;2022-09-27T16:35:20;10.60;99.90
15257;DHT22;7731;50.720;6.912;2022-09-27T16:37:51;10.60;99.90
15257;DHT22;7731;50.720;6.912;2022-09-27T16:40:22;10.70;99.90
15257;DHT22;7731;50.720;6.912;2022-09-27T16:42:54;10.60;99.90
15257;DHT22;7731;50.720;6.912;2022-09-27T16:45:24;10.60;99.90
15257;DHT22;7731;50.720;6.912;2022-09-27T16:48:04;10.60;99.90
15257;DHT22;7731;50.720;6.912;2022-09-27T16:50:34;10.60;99.90
15257;DHT22;7731;50.720;6.912;2022-09-27T16:53:16;10.60;99.90
15257;DHT22;7731;50.720;6.912;2022-09-27T16:55:46;10.50;99.90
15257;DHT22;7731;50.720;6.912;2022-09-27T16:58:16;10.40;99.90
15257;DHT22;7731;50.720;6.912;2022-09-27T17:00:47;10.30;99.90
15257;DHT22;7731;50.720;6.912;2022-09-27T17:03:22;10.30;99.90
15257;DHT22;7731;50.720;6.912;2022-09-27T17:06:00;10.30;99.90
15257;DHT22;7731;50.720;6.912;2022-09-27T17:08:30;10.30;99.90
15257;DHT22;7731;50.720;6.912;2022-09-27T17:11:02;10.30;99.90
15257;DHT22;7731;50.720;6.912;2022-09-27T17:13:32;10.30;99.90
15257;DHT22;7731;50.720;6.912;2022-09-27T17:16:05;10.20;99.90
15257;DHT22;7731;50.720;6.912;2022-09-27T17:18:41;10.10;99.90
15257;DHT22;7731;50.720;6.912;2022-09-27T17:21:14;10.10;99.90
15257;DHT22;7731;50.720;6.912;2022-09-27T17:23:44;10.20;99.90
15257;DHT22;7731;50.720;6.912;2022-09-27T17:26:19;10.20;99.90